Antlers, Colorado
Current Conditions -  °F | °C
As of 2:53 AM on Monday 22 Dec 2014 (Local Time) from KEEO Reporting Station
Overcast Overcast  
Wind Chill: -1°   Ceiling: 7000
Heat Index:   Visibility: 10mi
Dew Point: -3°   Wind: 9mph
Humidity: 65%   Direction: 310°NW
Pressure: 29.87"   Gusts: NA
Location:  39.7934°N, 108.135°W
Report Text: KEEO 220953Z AUTO 31008KT 280V340 10SM OVC070 03/M03 A2987 RMK AO2 UPB05E11SNB11E28 SLP106 P0000 T00281033
Loading
Personal Weather Stations






























Interactive Weather Map New forecast layout! Learn more

10-Day Weather Forecast

Advertisements
Track Severe Weather on mobile